createdAt,value
2023-10-14T00:02:24.791Z,98178.00
2023-10-14T00:04:56.726Z,98175.06
2023-10-14T00:07:27.015Z,98175.20
2023-10-14T00:09:58.787Z,98170.64
2023-10-14T00:12:29.956Z,98171.83
2023-10-14T00:15:04.969Z,98167.80
2023-10-14T00:17:37.880Z,98165.13
2023-10-14T00:20:09.170Z,98165.15
2023-10-14T00:22:40.543Z,98164.42
2023-10-14T00:25:20.781Z,98162.09
2023-10-14T00:27:52.119Z,98158.20
2023-10-14T00:30:28.118Z,98155.38
2023-10-14T00:32:57.179Z,98152.14
2023-10-14T00:35:27.479Z,98154.52
2023-10-14T00:38:04.062Z,98150.15
2023-10-14T00:40:32.448Z,98148.36
2023-10-14T00:43:05.489Z,98150.34
2023-10-14T00:45:33.981Z,98147.27
2023-10-14T00:48:02.142Z,98147.48
2023-10-14T00:50:36.574Z,98149.80
2023-10-14T00:53:07.874Z,98151.60
2023-10-14T00:56:08.458Z,98153.43
2023-10-14T00:58:42.175Z,98151.73
2023-10-14T01:01:10.380Z,98148.76
2023-10-14T01:03:38.661Z,98148.06
2023-10-14T01:06:19.165Z,98143.39
2023-10-14T01:08:54.038Z,98142.52
2023-10-14T01:11:25.969Z,98138.31
2023-10-14T01:14:01.669Z,98134.11
2023-10-14T01:16:32.669Z,98131.99
2023-10-14T01:19:03.712Z,98130.78
2023-10-14T01:21:33.191Z,98127.70
2023-10-14T01:24:01.257Z,98127.38
2023-10-14T01:26:34.128Z,98121.82
2023-10-14T01:29:07.370Z,98116.71
2023-10-14T01:31:56.426Z,98114.42
2023-10-14T01:34:29.511Z,98115.25
2023-10-14T01:37:02.388Z,98112.70
2023-10-14T01:39:30.705Z,98105.89
2023-10-14T01:41:59.058Z,98103.73
2023-10-14T01:44:27.360Z,98101.50
2023-10-14T01:46:57.028Z,98103.93
2023-10-14T01:49:28.806Z,98103.02
2023-10-14T01:52:00.998Z,98104.99
2023-10-14T01:54:29.247Z,98104.45
2023-10-14T01:56:57.583Z,98106.42
2023-10-14T01:59:28.738Z,98103.92
2023-10-14T02:01:59.492Z,98104.52
2023-10-14T02:04:28.670Z,98109.20
2023-10-14T02:07:15.669Z,98106.97
2023-10-14T02:09:44.006Z,98106.29
2023-10-14T02:12:15.123Z,98105.02
2023-10-14T02:14:58.839Z,98107.05
2023-10-14T02:17:27.294Z,98106.86
2023-10-14T02:20:07.175Z,98107.67
2023-10-14T02:22:39.436Z,98104.99
2023-10-14T02:25:08.068Z,98103.15
2023-10-14T02:27:36.329Z,98099.44
2023-10-14T02:30:07.247Z,98097.45
2023-10-14T02:32:36.041Z,98093.27
2023-10-14T02:35:04.999Z,98087.44
2023-10-14T02:37:33.324Z,98083.71
2023-10-14T02:40:01.651Z,98082.30
2023-10-14T02:42:30.602Z,98084.02
2023-10-14T02:45:00.886Z,98089.84
2023-10-14T02:47:29.387Z,98089.65
2023-10-14T02:50:06.164Z,98093.55
2023-10-14T02:52:40.221Z,98087.17
2023-10-14T02:55:27.173Z,98086.41
2023-10-14T02:57:56.494Z,98082.94
2023-10-14T03:00:32.205Z,98078.98
2023-10-14T03:03:15.769Z,98077.52
2023-10-14T03:05:45.744Z,98076.75
2023-10-14T03:08:14.198Z,98076.34
2023-10-14T03:10:46.526Z,98080.54
2023-10-14T03:13:15.126Z,98077.98
2023-10-14T03:15:46.355Z,98075.04
2023-10-14T03:18:18.607Z,98072.67
2023-10-14T03:20:53.412Z,98074.70
2023-10-14T03:23:24.697Z,98070.94
2023-10-14T03:26:07.286Z,98067.10
2023-10-14T03:28:38.779Z,98065.43
2023-10-14T03:31:15.046Z,98062.05
2023-10-14T03:33:46.218Z,98063.58
2023-10-14T03:36:18.682Z,98064.77
2023-10-14T03:39:00.662Z,98058.31
2023-10-14T03:41:38.676Z,98052.80
2023-10-14T03:44:11.330Z,98052.41
2023-10-14T03:46:44.507Z,98050.64
2023-10-14T03:49:13.909Z,98043.21
2023-10-14T03:51:56.206Z,98043.52
2023-10-14T03:54:25.782Z,98042.36
2023-10-14T03:56:54.297Z,98046.14
2023-10-14T03:59:24.529Z,98042.43
2023-10-14T04:02:03.005Z,98035.60
2023-10-14T04:04:32.036Z,98033.94
2023-10-14T04:07:00.492Z,98035.11
2023-10-14T04:09:52.345Z,98034.89
2023-10-14T04:12:36.603Z,98036.73
2023-10-14T04:15:15.242Z,98040.48
2023-10-14T04:17:49.717Z,98035.17
2023-10-14T04:20:24.205Z,98028.64
2023-10-14T04:22:55.136Z,98025.98
2023-10-14T04:25:28.370Z,98025.83
2023-10-14T04:27:56.620Z,98028.20
2023-10-14T04:30:33.912Z,98019.39
2023-10-14T04:33:03.442Z,98020.23
2023-10-14T04:35:38.184Z,98019.05
2023-10-14T04:38:18.705Z,98021.08
2023-10-14T04:40:54.808Z,98022.67
2023-10-14T04:43:26.419Z,98025.70
2023-10-14T04:46:02.253Z,98029.59
2023-10-14T04:48:37.257Z,98030.86
2023-10-14T04:51:09.522Z,98028.70
2023-10-14T04:53:44.297Z,98028.88
2023-10-14T04:56:12.776Z,98031.20
2023-10-14T04:58:41.737Z,98029.95
2023-10-14T05:01:11.025Z,98030.80
2023-10-14T05:03:39.461Z,98027.16
2023-10-14T05:06:12.157Z,98028.54
2023-10-14T05:08:46.607Z,98027.21
2023-10-14T05:11:19.770Z,98024.73
2023-10-14T05:13:57.626Z,98024.67
2023-10-14T05:16:28.424Z,98023.48
2023-10-14T05:19:08.477Z,98018.60
2023-10-14T05:21:37.408Z,98016.85
2023-10-14T05:24:10.408Z,98016.73
2023-10-14T05:26:48.641Z,98017.52
2023-10-14T05:29:19.058Z,98022.80
2023-10-14T05:31:48.936Z,98023.42
2023-10-14T05:34:30.424Z,98022.09
2023-10-14T05:36:58.728Z,98024.31
2023-10-14T05:39:28.957Z,98021.33
2023-10-14T05:41:59.811Z,98021.39
2023-10-14T05:44:28.808Z,98022.95
2023-10-14T05:46:57.520Z,98024.94
2023-10-14T05:49:26.548Z,98030.48
2023-10-14T05:51:55.329Z,98030.70
2023-10-14T05:54:26.560Z,98031.70
2023-10-14T05:56:55.149Z,98032.55
2023-10-14T05:59:23.637Z,98035.73
2023-10-14T06:01:53.118Z,98035.64
2023-10-14T06:04:21.463Z,98037.70
2023-10-14T06:06:49.716Z,98037.77
2023-10-14T06:09:18.498Z,98033.10
2023-10-14T06:11:47.303Z,98032.52
2023-10-14T06:14:15.532Z,98026.89
2023-10-14T06:16:43.754Z,98027.72
2023-10-14T06:19:14.455Z,98026.16
2023-10-14T06:21:42.618Z,98022.09
2023-10-14T06:24:12.325Z,98019.67
2023-10-14T06:26:41.217Z,98016.55
2023-10-14T06:29:11.127Z,98015.63
2023-10-14T06:31:39.369Z,98017.77
2023-10-14T06:34:10.447Z,98017.41
2023-10-14T06:36:39.108Z,98015.17
2023-10-14T06:39:16.196Z,98013.13
2023-10-14T06:41:47.305Z,98010.80
2023-10-14T06:44:16.712Z,98011.81
2023-10-14T06:46:46.497Z,98015.84
2023-10-14T06:49:15.595Z,98019.20
2023-10-14T06:51:44.516Z,98020.64
2023-10-14T06:54:15.393Z,98024.31
2023-10-14T06:56:46.264Z,98019.92
2023-10-14T06:59:14.590Z,98016.23
2023-10-14T07:01:44.756Z,98009.10
2023-10-14T07:04:13.892Z,98004.42
2023-10-14T07:06:45.153Z,98001.31
2023-10-14T07:09:18.809Z,98000.04
2023-10-14T07:11:48.146Z,97995.30
2023-10-14T07:14:16.339Z,97994.71
2023-10-14T07:16:44.649Z,97989.91
2023-10-14T07:19:13.124Z,97989.30
2023-10-14T07:21:41.651Z,97983.55
2023-10-14T07:24:10.174Z,97976.73
2023-10-14T07:26:38.405Z,97977.67
2023-10-14T07:29:07.569Z,97969.45
2023-10-14T07:31:38.022Z,97971.24
2023-10-14T07:34:10.499Z,97969.46
2023-10-14T07:36:38.894Z,97960.44
2023-10-14T07:39:25.682Z,97957.17
2023-10-14T07:41:53.885Z,97959.91
2023-10-14T07:44:24.369Z,97963.17
2023-10-14T07:46:54.287Z,97965.84
2023-10-14T07:49:22.836Z,97965.02
2023-10-14T07:51:55.679Z,97961.61
2023-10-14T07:54:24.898Z,97959.35
2023-10-14T07:56:54.282Z,97958.84
2023-10-14T07:59:22.735Z,97957.73
2023-10-14T08:01:52.004Z,97953.09
2023-10-14T08:04:21.978Z,97953.27
2023-10-14T08:06:50.397Z,97952.16
2023-10-14T08:09:30.134Z,97951.50
2023-10-14T08:12:00.840Z,97952.42
2023-10-14T08:14:32.393Z,97946.59
2023-10-14T08:17:00.798Z,97939.26
2023-10-14T08:19:29.230Z,97939.35
2023-10-14T08:21:57.605Z,97928.02
2023-10-14T08:24:25.805Z,97925.06
2023-10-14T08:26:55.047Z,97920.99
2023-10-14T08:29:23.465Z,97921.17
2023-10-14T08:31:55.398Z,97923.48
2023-10-14T08:34:26.540Z,97921.79
2023-10-14T08:36:57.843Z,97917.13
2023-10-14T08:39:26.303Z,97914.64
2023-10-14T08:41:57.167Z,97908.73
2023-10-14T08:44:32.929Z,97903.27
2023-10-14T08:47:03.903Z,97906.86
2023-10-14T08:49:34.815Z,97907.61
2023-10-14T08:52:10.605Z,97909.54
2023-10-14T08:54:39.446Z,97908.63
2023-10-14T08:57:08.730Z,97903.68
2023-10-14T08:59:36.941Z,97899.25
2023-10-14T09:02:05.514Z,97894.98
2023-10-14T09:04:36.406Z,97891.98
2023-10-14T09:07:05.648Z,97891.88
2023-10-14T09:09:34.435Z,97888.85
2023-10-14T09:12:12.640Z,97888.29
2023-10-14T09:14:42.821Z,97886.64
2023-10-14T09:17:12.415Z,97879.67
2023-10-14T09:19:45.228Z,97873.69
2023-10-14T09:22:35.321Z,97867.94
2023-10-14T09:25:05.196Z,97864.30
2023-10-14T09:27:33.765Z,97859.82
2023-10-14T09:30:05.119Z,97858.13
2023-10-14T09:32:34.269Z,97852.20
2023-10-14T09:35:02.611Z,97852.21
2023-10-14T09:37:33.064Z,97843.17
2023-10-14T09:40:07.733Z,97833.83
2023-10-14T09:42:37.417Z,97830.86
2023-10-14T09:45:12.740Z,97823.99
2023-10-14T09:47:47.185Z,97820.63
2023-10-14T09:50:17.565Z,97814.22
2023-10-14T09:52:49.044Z,97809.55
2023-10-14T09:55:20.881Z,97802.00
2023-10-14T09:57:50.520Z,97794.00
2023-10-14T10:00:18.883Z,97796.82
2023-10-14T10:02:51.222Z,97794.47
2023-10-14T10:05:28.109Z,97783.20
2023-10-14T10:08:23.507Z,97781.13
2023-10-14T10:10:52.952Z,97778.57
2023-10-14T10:13:24.712Z,97778.67
2023-10-14T10:15:54.442Z,97764.14
2023-10-14T10:18:24.169Z,97759.50
2023-10-14T10:20:59.302Z,97753.27
2023-10-14T10:23:28.373Z,97750.21
2023-10-14T10:25:58.024Z,97740.02
2023-10-14T10:28:29.411Z,97730.07
2023-10-14T10:31:30.857Z,97731.27
2023-10-14T10:34:01.969Z,97723.98
2023-10-14T10:36:32.502Z,97718.25
2023-10-14T10:39:18.491Z,97716.48
2023-10-14T10:41:52.116Z,97710.55
2023-10-14T10:44:20.970Z,97708.48
2023-10-14T10:46:50.655Z,97705.54
2023-10-14T10:49:50.744Z,97698.25
2023-10-14T10:52:19.494Z,97696.52
2023-10-14T10:54:48.844Z,97693.06
2023-10-14T10:57:18.631Z,97686.41
2023-10-14T10:59:47.545Z,97679.35
2023-10-14T11:02:19.814Z,97678.00
2023-10-14T11:04:49.802Z,97670.31
2023-10-14T11:07:24.692Z,97668.17
2023-10-14T11:09:53.657Z,97664.48
2023-10-14T11:12:21.974Z,97655.55
2023-10-14T11:14:50.460Z,97655.60
2023-10-14T11:17:24.229Z,97653.02
2023-10-14T11:19:54.535Z,97649.39
2023-10-14T11:22:25.317Z,97648.91
2023-10-14T11:24:56.643Z,97649.47
2023-10-14T11:27:25.786Z,97638.65
2023-10-14T11:29:56.858Z,97638.06
2023-10-14T11:32:26.695Z,97636.16
2023-10-14T11:34:57.720Z,97636.54
2023-10-14T11:37:28.293Z,97631.05
2023-10-14T11:39:56.561Z,97630.25
2023-10-14T11:42:24.720Z,97623.64
2023-10-14T11:44:52.949Z,97617.14
2023-10-14T11:47:21.214Z,97620.98
2023-10-14T11:49:51.234Z,97615.59
2023-10-14T11:52:23.171Z,97610.69
2023-10-14T11:54:53.698Z,97606.02
2023-10-14T11:57:21.794Z,97603.51
2023-10-14T11:59:50.317Z,97598.98
2023-10-14T12:02:19.807Z,97594.19
2023-10-14T12:04:48.221Z,97592.33
2023-10-14T12:07:17.981Z,97586.73
2023-10-14T12:09:46.484Z,97580.48
2023-10-14T12:12:14.612Z,97580.52
2023-10-14T12:14:42.746Z,97573.59
2023-10-14T12:17:11.266Z,97571.47
2023-10-14T12:19:42.250Z,97565.38
2023-10-14T12:22:10.778Z,97562.14
2023-10-14T12:24:39.007Z,97559.26
2023-10-14T12:27:15.066Z,97560.37
2023-10-14T12:29:43.315Z,97553.95
2023-10-14T12:32:19.260Z,97550.05
2023-10-14T12:34:53.603Z,97546.44
2023-10-14T12:37:26.265Z,97543.81
2023-10-14T12:39:56.976Z,97542.55
2023-10-14T12:42:39.479Z,97536.44
2023-10-14T12:45:14.053Z,97534.84
2023-10-14T12:47:47.481Z,97531.80
2023-10-14T12:50:21.347Z,97529.73
2023-10-14T12:52:51.595Z,97524.31
2023-10-14T12:55:23.886Z,97510.75
2023-10-14T12:57:53.279Z,97510.79
2023-10-14T13:00:30.497Z,97513.35
2023-10-14T13:02:59.952Z,97510.91
2023-10-14T13:05:29.617Z,97506.48
2023-10-14T13:07:57.918Z,97501.02
2023-10-14T13:10:27.212Z,97503.76
2023-10-14T13:12:59.735Z,97497.93
2023-10-14T13:15:32.308Z,97493.69
2023-10-14T13:18:06.459Z,97487.16
2023-10-14T13:20:36.622Z,97483.65
2023-10-14T13:23:10.747Z,97481.21
2023-10-14T13:25:40.210Z,97479.44
2023-10-14T13:28:11.056Z,97473.53
2023-10-14T13:30:47.059Z,97470.82
2023-10-14T13:33:17.816Z,97464.91
2023-10-14T13:35:47.294Z,97460.40
2023-10-14T13:38:16.157Z,97459.13
2023-10-14T13:40:44.343Z,97456.42
2023-10-14T13:43:16.008Z,97454.14
2023-10-14T13:45:45.097Z,97453.23
2023-10-14T13:48:15.553Z,97450.82
2023-10-14T13:50:44.157Z,97446.52
2023-10-14T13:53:22.665Z,97443.95
2023-10-14T13:55:57.123Z,97444.33
2023-10-14T13:58:26.113Z,97443.90
2023-10-14T14:00:57.283Z,97439.98
2023-10-14T14:03:32.746Z,97438.91
2023-10-14T14:06:07.661Z,97440.21
2023-10-14T14:08:36.914Z,97439.67
2023-10-14T14:11:05.466Z,97439.80
2023-10-14T14:13:33.933Z,97440.86
2023-10-14T14:16:03.617Z,97434.20
2023-10-14T14:18:32.359Z,97432.31
2023-10-14T14:21:00.638Z,97426.26
2023-10-14T14:23:28.867Z,97419.85
2023-10-14T14:25:57.029Z,97415.42
2023-10-14T14:28:25.292Z,97412.05
2023-10-14T14:30:53.524Z,97412.10
2023-10-14T14:33:21.736Z,97410.84
2023-10-14T14:35:49.995Z,97410.04
2023-10-14T14:38:22.253Z,97404.91
2023-10-14T14:40:50.660Z,97405.40
2023-10-14T14:43:19.195Z,97401.70
2023-10-14T14:45:47.479Z,97403.29
2023-10-14T14:48:15.561Z,97404.80
2023-10-14T14:50:46.312Z,97403.10
2023-10-14T14:53:15.661Z,97401.65
2023-10-14T14:55:46.997Z,97400.42
2023-10-14T14:58:16.435Z,97396.42
2023-10-14T15:00:46.267Z,97389.38
2023-10-14T15:03:14.572Z,97388.77
2023-10-14T15:05:43.620Z,97391.80
2023-10-14T15:08:14.892Z,97393.38
2023-10-14T15:10:46.313Z,97389.99
2023-10-14T15:13:18.125Z,97387.24
2023-10-14T15:15:51.883Z,97384.98
2023-10-14T15:18:21.440Z,97390.96
2023-10-14T15:20:50.107Z,97391.77
2023-10-14T15:23:18.486Z,97393.73
2023-10-14T15:25:47.703Z,97395.88
2023-10-14T15:28:21.008Z,97394.88
2023-10-14T15:30:50.294Z,97395.13
2023-10-14T15:33:18.582Z,97394.70
2023-10-14T15:35:47.147Z,97394.73
2023-10-14T15:38:15.443Z,97391.45
2023-10-14T15:40:48.833Z,97389.91
2023-10-14T15:43:18.440Z,97390.08
2023-10-14T15:45:48.046Z,97387.98
2023-10-14T15:48:17.144Z,97386.02
2023-10-14T15:50:46.674Z,97388.97
2023-10-14T15:53:15.220Z,97393.58
2023-10-14T15:55:44.232Z,97393.64
2023-10-14T15:58:15.555Z,97400.44
2023-10-14T16:00:48.928Z,97407.35
2023-10-14T16:03:17.537Z,97409.66
2023-10-14T16:05:46.125Z,97408.27
2023-10-14T16:08:20.333Z,97404.92
2023-10-14T16:10:49.932Z,97400.33
2023-10-14T16:13:18.209Z,97403.37
2023-10-14T16:15:46.473Z,97401.70
2023-10-14T16:18:14.657Z,97408.36
2023-10-14T16:20:44.798Z,97411.14
2023-10-14T16:23:13.236Z,97410.08
2023-10-14T16:25:42.666Z,97408.12
2023-10-14T16:28:11.990Z,97410.75
2023-10-14T16:30:41.867Z,97410.05
2023-10-14T16:33:12.445Z,97410.80
2023-10-14T16:35:42.452Z,97416.92
2023-10-14T16:38:11.600Z,97415.85
2023-10-14T16:40:40.334Z,97414.17
2023-10-14T16:43:11.927Z,97414.69
2023-10-14T16:45:41.635Z,97413.86
2023-10-14T16:48:13.221Z,97418.01
2023-10-14T16:50:44.791Z,97419.70
2023-10-14T16:53:13.461Z,97422.45
2023-10-14T16:55:42.584Z,97422.60
2023-10-14T16:58:12.181Z,97424.44
2023-10-14T17:00:41.683Z,97422.70
2023-10-14T17:03:09.926Z,97421.68
2023-10-14T17:05:41.119Z,97419.62
2023-10-14T17:08:10.452Z,97419.89
2023-10-14T17:10:39.814Z,97417.98
2023-10-14T17:13:11.407Z,97418.00
2023-10-14T17:15:43.082Z,97415.05
2023-10-14T17:18:12.508Z,97418.05
2023-10-14T17:20:42.253Z,97416.45
2023-10-14T17:23:14.674Z,97418.02
2023-10-14T17:25:43.149Z,97418.01
2023-10-14T17:28:14.428Z,97415.90
2023-10-14T17:30:42.660Z,97418.66
2023-10-14T17:33:10.896Z,97419.00
2023-10-14T17:35:42.712Z,97423.58
2023-10-14T17:38:11.249Z,97423.42
2023-10-14T17:40:42.174Z,97420.88
2023-10-14T17:43:14.914Z,97419.20
2023-10-14T17:45:43.337Z,97418.71
2023-10-14T17:48:12.141Z,97418.02
2023-10-14T17:50:42.241Z,97416.93
2023-10-14T17:53:15.231Z,97418.96
2023-10-14T17:55:47.655Z,97418.38
2023-10-14T17:58:19.363Z,97421.47
2023-10-14T18:00:50.605Z,97421.67
2023-10-14T18:03:20.450Z,97418.25
2023-10-14T18:05:49.435Z,97421.98
2023-10-14T18:08:21.321Z,97421.72
2023-10-14T18:10:50.571Z,97422.95
2023-10-14T18:13:20.841Z,97421.09
2023-10-14T18:15:49.216Z,97422.25
2023-10-14T18:18:18.593Z,97422.90
2023-10-14T18:20:47.211Z,97422.13
2023-10-14T18:23:16.904Z,97421.23
2023-10-14T18:25:54.199Z,97422.66
2023-10-14T18:28:22.552Z,97423.71
2023-10-14T18:30:52.517Z,97424.63
2023-10-14T18:33:21.946Z,97428.25
2023-10-14T18:35:51.364Z,97428.94
2023-10-14T18:38:19.946Z,97425.43
2023-10-14T18:40:48.802Z,97429.49
2023-10-14T18:43:23.876Z,97427.62
2023-10-14T18:45:52.173Z,97430.27
2023-10-14T18:48:20.757Z,97433.70
2023-10-14T18:50:50.000Z,97437.33
2023-10-14T18:53:19.803Z,97433.42
2023-10-14T18:55:52.938Z,97432.32
2023-10-14T18:58:22.368Z,97432.88
2023-10-14T19:00:52.265Z,97436.39
2023-10-14T19:03:20.693Z,97443.61
2023-10-14T19:05:50.853Z,97446.45
2023-10-14T19:08:19.065Z,97447.55
2023-10-14T19:10:49.997Z,97444.51
2023-10-14T19:13:19.681Z,97442.74
2023-10-14T19:15:54.546Z,97443.73
2023-10-14T19:18:23.412Z,97441.55
2023-10-14T19:20:53.441Z,97443.52
2023-10-14T19:23:27.195Z,97443.85
2023-10-14T19:25:57.790Z,97445.50
2023-10-14T19:28:27.916Z,97445.48
2023-10-14T19:31:05.848Z,97443.71
2023-10-14T19:33:34.349Z,97449.36
2023-10-14T19:36:06.187Z,97453.27
2023-10-14T19:38:34.673Z,97450.09
2023-10-14T19:41:05.863Z,97446.43
2023-10-14T19:43:35.206Z,97447.35
2023-10-14T19:46:10.464Z,97441.80
2023-10-14T19:48:42.279Z,97439.48
2023-10-14T19:51:13.096Z,97439.17
2023-10-14T19:53:45.401Z,97436.85
2023-10-14T19:56:14.107Z,97440.16
2023-10-14T19:58:44.880Z,97443.46
2023-10-14T20:01:18.441Z,97442.77
2023-10-14T20:03:47.250Z,97446.21
2023-10-14T20:06:20.516Z,97449.90
2023-10-14T20:08:50.184Z,97448.60
2023-10-14T20:11:18.517Z,97451.55
2023-10-14T20:13:47.745Z,97449.07
2023-10-14T20:16:17.881Z,97449.30
2023-10-14T20:18:47.683Z,97444.42
2023-10-14T20:21:16.875Z,97439.68
2023-10-14T20:23:45.338Z,97440.69
2023-10-14T20:26:14.318Z,97445.06
2023-10-14T20:28:45.962Z,97444.09
2023-10-14T20:31:22.978Z,97443.64
2023-10-14T20:33:52.644Z,97441.70
2023-10-14T20:36:20.855Z,97435.14
2023-10-14T20:38:54.005Z,97433.48
2023-10-14T20:41:22.599Z,97427.67
2023-10-14T20:43:52.934Z,97426.48
2023-10-14T20:46:21.632Z,97422.54
2023-10-14T20:48:52.521Z,97417.68
2023-10-14T20:51:21.348Z,97419.04
2023-10-14T20:53:50.373Z,97415.98
2023-10-14T20:56:21.197Z,97415.36
2023-10-14T20:58:50.297Z,97412.70
2023-10-14T21:01:18.799Z,97411.98
2023-10-14T21:03:49.661Z,97411.83
2023-10-14T21:06:18.217Z,97412.73
2023-10-14T21:08:48.874Z,97410.61
2023-10-14T21:11:23.083Z,97403.73
2023-10-14T21:13:55.925Z,97407.30
2023-10-14T21:16:25.511Z,97410.38
2023-10-14T21:18:54.925Z,97408.41
2023-10-14T21:21:25.434Z,97404.91
2023-10-14T21:23:55.415Z,97401.76
2023-10-14T21:26:23.549Z,97402.70
2023-10-14T21:28:51.900Z,97401.13
2023-10-14T21:31:21.786Z,97398.44
2023-10-14T21:33:53.324Z,97399.89
2023-10-14T21:36:22.195Z,97398.66
2023-10-14T21:38:50.668Z,97397.95
2023-10-14T21:41:19.056Z,97399.92
2023-10-14T21:43:50.128Z,97402.06
2023-10-14T21:46:20.403Z,97396.70
2023-10-14T21:48:48.752Z,97394.86
2023-10-14T21:51:17.074Z,97395.27
2023-10-14T21:53:45.398Z,97393.20
2023-10-14T21:56:15.005Z,97391.64
2023-10-14T21:58:43.933Z,97389.81
2023-10-14T22:01:15.520Z,97386.92
2023-10-14T22:03:46.969Z,97384.27
2023-10-14T22:06:15.675Z,97389.33
2023-10-14T22:08:43.860Z,97392.34
2023-10-14T22:11:12.757Z,97396.61
2023-10-14T22:13:41.636Z,97396.86
2023-10-14T22:16:10.901Z,97395.98
2023-10-14T22:18:43.210Z,97396.71
2023-10-14T22:21:18.090Z,97391.31
2023-10-14T22:23:46.632Z,97383.13
2023-10-14T22:26:15.071Z,97375.36
2023-10-14T22:28:43.297Z,97376.04
2023-10-14T22:31:13.073Z,97370.48
2023-10-14T22:33:42.779Z,97369.42
2023-10-14T22:36:15.722Z,97370.71
2023-10-14T22:38:44.966Z,97372.53
2023-10-14T22:41:14.629Z,97373.45
2023-10-14T22:43:43.101Z,97374.29
2023-10-14T22:46:16.069Z,97373.75
2023-10-14T22:48:44.529Z,97371.52
2023-10-14T22:51:13.251Z,97370.59
2023-10-14T22:53:45.199Z,97370.96
2023-10-14T22:56:14.144Z,97370.12
2023-10-14T22:58:42.404Z,97368.65
2023-10-14T23:01:12.017Z,97366.34
2023-10-14T23:03:43.030Z,97368.70
2023-10-14T23:06:11.643Z,97369.16
2023-10-14T23:08:39.974Z,97369.42
2023-10-14T23:11:08.285Z,97374.16
2023-10-14T23:13:36.468Z,97376.27
2023-10-14T23:16:06.044Z,97374.15
2023-10-14T23:18:34.972Z,97370.70
2023-10-14T23:21:03.252Z,97366.02
2023-10-14T23:23:31.390Z,97362.13
2023-10-14T23:26:00.383Z,97364.23
2023-10-14T23:28:28.569Z,97365.22
2023-10-14T23:30:56.752Z,97367.51
2023-10-14T23:33:24.877Z,97366.41
2023-10-14T23:35:54.637Z,97363.77
2023-10-14T23:38:23.031Z,97359.14
2023-10-14T23:40:51.201Z,97356.22
2023-10-14T23:43:19.348Z,97353.52
2023-10-14T23:45:47.692Z,97351.30
2023-10-14T23:48:15.861Z,97351.36
2023-10-14T23:50:44.169Z,97347.52
2023-10-14T23:53:12.315Z,97345.64
2023-10-14T23:55:44.850Z,97350.83
2023-10-14T23:58:13.270Z,97352.77
